createdAt,value
2023-01-01T00:01:40.625Z,19.93
2023-01-01T00:04:10.937Z,17.33
2023-01-01T00:06:37.362Z,16.13
2023-01-01T00:09:22.477Z,15.97
2023-01-01T00:11:49.026Z,16.10
2023-01-01T00:14:15.437Z,14.40
2023-01-01T00:16:41.908Z,15.00
2023-01-01T00:19:08.438Z,14.87
2023-01-01T00:21:34.940Z,14.33
2023-01-01T00:24:01.477Z,14.03
2023-01-01T00:26:32.814Z,13.07
2023-01-01T00:29:01.798Z,12.03
2023-01-01T00:31:28.459Z,12.53
2023-01-01T00:33:55.692Z,11.10
2023-01-01T00:36:24.603Z,11.07
2023-01-01T00:38:51.210Z,9.87
2023-01-01T00:41:18.834Z,9.27
2023-01-01T00:43:45.608Z,7.83
2023-01-01T00:46:13.023Z,7.57
2023-01-01T00:48:39.953Z,7.17
2023-01-01T00:51:06.581Z,6.13
2023-01-01T00:53:33.365Z,5.50
2023-01-01T00:55:59.852Z,4.73
2023-01-01T00:58:26.609Z,4.50
2023-01-01T01:00:55.862Z,4.83
2023-01-01T01:03:28.434Z,5.20
2023-01-01T01:06:09.009Z,3.90
2023-01-01T01:08:37.435Z,4.00
2023-01-01T01:11:16.178Z,4.67
2023-01-01T01:13:43.980Z,4.13
2023-01-01T01:16:16.885Z,4.47
2023-01-01T01:18:44.090Z,4.73
2023-01-01T01:21:11.218Z,4.33
2023-01-01T01:23:37.764Z,5.90
2023-01-01T01:26:08.520Z,4.00
2023-01-01T01:28:35.012Z,3.20
2023-01-01T01:31:01.703Z,3.97
2023-01-01T01:33:28.241Z,2.73
2023-01-01T01:35:54.583Z,2.87
2023-01-01T01:38:21.350Z,2.70
2023-01-01T01:40:48.126Z,2.80
2023-01-01T01:43:45.058Z,2.20
2023-01-01T01:46:17.957Z,2.30
2023-01-01T01:48:48.382Z,2.23
2023-01-01T01:51:18.119Z,2.43
2023-01-01T01:53:49.710Z,1.97
2023-01-01T01:56:22.041Z,1.90
2023-01-01T01:58:48.528Z,2.27
2023-01-01T02:01:15.062Z,2.20
2023-01-01T02:03:59.962Z,2.00
2023-01-01T02:06:31.938Z,1.90
2023-01-01T02:09:01.798Z,1.90
2023-01-01T02:11:28.217Z,1.93
2023-01-01T02:13:56.134Z,1.90
2023-01-01T02:16:29.781Z,1.63
2023-01-01T02:19:02.801Z,1.70
2023-01-01T02:21:55.378Z,1.60
2023-01-01T02:25:04.265Z,3.43
2023-01-01T02:27:54.618Z,2.20
2023-01-01T02:30:21.227Z,1.77
2023-01-01T02:32:54.867Z,1.27
2023-01-01T02:35:36.029Z,1.70
2023-01-01T02:38:24.072Z,1.70
2023-01-01T02:40:55.882Z,1.47
2023-01-01T02:43:25.013Z,1.40
2023-01-01T02:45:53.389Z,1.40
2023-01-01T02:48:49.917Z,2.00
2023-01-01T02:51:22.199Z,1.90
2023-01-01T02:54:19.641Z,1.80
2023-01-01T02:57:10.555Z,1.50
2023-01-01T03:00:17.572Z,1.47
2023-01-01T03:03:02.366Z,1.77
2023-01-01T03:05:33.960Z,1.80
2023-01-01T03:08:15.840Z,1.63
2023-01-01T03:10:59.270Z,1.80
2023-01-01T03:13:28.531Z,2.10
2023-01-01T03:16:13.317Z,1.63
2023-01-01T03:19:10.874Z,1.73
2023-01-01T03:21:48.956Z,1.80
2023-01-01T03:24:44.754Z,1.60
2023-01-01T03:27:16.920Z,1.77
2023-01-01T03:29:45.231Z,1.63
2023-01-01T03:32:16.659Z,1.60
2023-01-01T03:34:53.493Z,1.70
2023-01-01T03:37:25.881Z,1.60
2023-01-01T03:39:55.969Z,1.73
2023-01-01T03:42:34.767Z,1.67
2023-01-01T03:45:06.732Z,1.80
2023-01-01T03:47:33.439Z,1.53
2023-01-01T03:50:00.510Z,2.17
2023-01-01T03:52:49.131Z,1.53
2023-01-01T03:55:35.028Z,2.33
2023-01-01T03:58:24.698Z,1.67
2023-01-01T04:01:08.975Z,1.60
2023-01-01T04:03:38.611Z,1.70
2023-01-01T04:06:06.523Z,1.97
2023-01-01T04:08:35.773Z,1.50
2023-01-01T04:11:29.701Z,1.40
2023-01-01T04:13:56.169Z,2.00
2023-01-01T04:16:22.645Z,2.50
2023-01-01T04:18:49.135Z,1.53
2023-01-01T04:21:15.553Z,1.70
2023-01-01T04:23:41.899Z,2.13
2023-01-01T04:26:13.279Z,1.50
2023-01-01T04:28:40.366Z,1.70
2023-01-01T04:31:06.722Z,1.80
2023-01-01T04:33:33.321Z,1.40
2023-01-01T04:36:05.989Z,1.53
2023-01-01T04:38:37.082Z,1.70
2023-01-01T04:41:04.474Z,1.33
2023-01-01T04:43:31.631Z,1.67
2023-01-01T04:46:00.015Z,1.93
2023-01-01T04:48:27.987Z,1.60
2023-01-01T04:51:04.269Z,1.87
2023-01-01T04:53:33.449Z,1.60
2023-01-01T04:56:14.371Z,1.60
2023-01-01T04:58:42.719Z,1.80
2023-01-01T05:01:18.584Z,1.60
2023-01-01T05:03:45.749Z,1.93
2023-01-01T05:06:13.401Z,1.90
2023-01-01T05:08:42.059Z,1.80
2023-01-01T05:11:15.200Z,1.60
2023-01-01T05:13:44.233Z,1.60
2023-01-01T05:16:15.922Z,2.00
2023-01-01T05:18:43.050Z,1.97
2023-01-01T05:21:13.035Z,2.03
2023-01-01T05:23:40.041Z,1.80
2023-01-01T05:26:15.188Z,2.00
2023-01-01T05:28:42.055Z,1.60
2023-01-01T05:31:14.039Z,2.00
2023-01-01T05:33:40.893Z,1.67
2023-01-01T05:36:09.215Z,1.53
2023-01-01T05:38:36.247Z,1.63
2023-01-01T05:41:07.955Z,1.63
2023-01-01T05:43:35.361Z,1.90
2023-01-01T05:46:07.462Z,2.10
2023-01-01T05:48:37.319Z,1.60
2023-01-01T05:51:09.516Z,1.73
2023-01-01T05:53:35.923Z,2.63
2023-01-01T05:56:03.233Z,1.67
2023-01-01T05:58:30.927Z,1.70
2023-01-01T06:01:09.734Z,1.80
2023-01-01T06:03:36.594Z,1.87
2023-01-01T06:06:05.097Z,1.67
2023-01-01T06:08:31.601Z,1.60
2023-01-01T06:11:06.377Z,1.60
2023-01-01T06:13:33.369Z,2.00
2023-01-01T06:16:01.534Z,1.83
2023-01-01T06:18:34.561Z,1.70
2023-01-01T06:21:19.180Z,1.53
2023-01-01T06:23:46.166Z,1.70
2023-01-01T06:26:22.779Z,2.00
2023-01-01T06:28:50.351Z,1.70
2023-01-01T06:31:19.496Z,1.90
2023-01-01T06:33:46.983Z,1.60
2023-01-01T06:36:15.727Z,1.70
2023-01-01T06:38:44.882Z,1.67
2023-01-01T06:41:17.719Z,2.07
2023-01-01T06:43:44.565Z,1.97
2023-01-01T06:46:19.963Z,2.03
2023-01-01T06:48:48.400Z,1.70
2023-01-01T06:51:19.255Z,1.70
2023-01-01T06:53:46.899Z,1.97
2023-01-01T06:56:13.559Z,2.30
2023-01-01T06:58:40.529Z,1.90
2023-01-01T07:01:15.219Z,1.77
2023-01-01T07:03:42.568Z,1.50
2023-01-01T07:06:09.835Z,1.80
2023-01-01T07:08:36.908Z,1.57
2023-01-01T07:11:03.765Z,1.70
2023-01-01T07:13:31.224Z,1.73
2023-01-01T07:15:57.715Z,2.03
2023-01-01T07:18:25.900Z,1.70
2023-01-01T07:20:55.370Z,2.20
2023-01-01T07:23:21.775Z,2.27
2023-01-01T07:25:52.679Z,1.70
2023-01-01T07:28:20.271Z,1.80
2023-01-01T07:30:47.204Z,1.70
2023-01-01T07:33:16.460Z,1.70
2023-01-01T07:35:44.886Z,2.00
2023-01-01T07:38:11.908Z,1.97
2023-01-01T07:40:38.393Z,1.70
2023-01-01T07:43:04.854Z,1.70
2023-01-01T07:45:32.014Z,1.70
2023-01-01T07:47:59.745Z,1.90
2023-01-01T07:50:30.421Z,2.23
2023-01-01T07:52:56.910Z,1.80
2023-01-01T07:55:23.277Z,1.67
2023-01-01T07:57:49.877Z,2.00
2023-01-01T08:00:19.009Z,2.00
2023-01-01T08:02:45.970Z,1.90
2023-01-01T08:05:12.706Z,2.17
2023-01-01T08:07:39.551Z,1.90
2023-01-01T08:10:06.807Z,2.10
2023-01-01T08:12:33.753Z,2.07
2023-01-01T08:15:00.182Z,1.70
2023-01-01T08:17:26.552Z,2.17
2023-01-01T08:19:52.978Z,2.37
2023-01-01T08:22:19.577Z,2.10
2023-01-01T08:24:45.935Z,2.20
2023-01-01T08:27:14.019Z,1.67
2023-01-01T08:29:40.577Z,3.47
2023-01-01T08:32:07.060Z,1.80
2023-01-01T08:34:34.506Z,2.13
2023-01-01T08:37:01.023Z,2.20
2023-01-01T08:39:27.504Z,2.10
2023-01-01T08:41:55.057Z,1.93
2023-01-01T08:44:21.423Z,1.87
2023-01-01T08:46:47.960Z,2.33
2023-01-01T08:49:14.455Z,2.13
2023-01-01T08:51:41.072Z,2.20
2023-01-01T08:54:07.702Z,1.80
2023-01-01T08:56:34.173Z,2.00
2023-01-01T08:59:04.367Z,1.80
2023-01-01T09:01:31.460Z,1.90
2023-01-01T09:03:58.047Z,1.83
2023-01-01T09:06:25.559Z,2.10
2023-01-01T09:08:51.953Z,1.93
2023-01-01T09:11:24.834Z,2.10
2023-01-01T09:13:51.910Z,2.10
2023-01-01T09:16:18.521Z,1.80
2023-01-01T09:18:44.956Z,2.00
2023-01-01T09:21:11.473Z,1.87
2023-01-01T09:23:37.873Z,1.77
2023-01-01T09:26:08.549Z,2.10
2023-01-01T09:28:36.141Z,1.90
2023-01-01T09:31:05.108Z,2.20
2023-01-01T09:33:32.764Z,1.80
2023-01-01T09:36:35.269Z,1.80
2023-01-01T09:39:02.837Z,1.97
2023-01-01T09:42:03.754Z,1.90
2023-01-01T09:44:59.152Z,2.27
2023-01-01T09:47:38.133Z,2.33
2023-01-01T09:50:13.840Z,2.20
2023-01-01T09:52:56.757Z,1.93
2023-01-01T09:55:28.613Z,1.90
2023-01-01T09:57:56.892Z,1.70
2023-01-01T10:00:23.946Z,1.93
2023-01-01T10:03:27.989Z,1.83
2023-01-01T10:06:06.547Z,1.50
2023-01-01T10:09:10.884Z,1.87
2023-01-01T10:12:09.633Z,1.80
2023-01-01T10:14:50.163Z,2.13
2023-01-01T10:17:34.829Z,1.60
2023-01-01T10:20:07.609Z,1.87
2023-01-01T10:22:39.961Z,1.60
2023-01-01T10:25:18.143Z,2.07
2023-01-01T10:27:57.115Z,1.90
2023-01-01T10:30:26.377Z,1.90
2023-01-01T10:32:54.997Z,1.80
2023-01-01T10:35:30.751Z,2.30
2023-01-01T10:37:59.426Z,1.90
2023-01-01T10:40:28.048Z,1.70
2023-01-01T10:42:56.680Z,1.83
2023-01-01T10:45:33.008Z,1.97
2023-01-01T10:48:21.544Z,2.40
2023-01-01T10:51:00.103Z,1.90
2023-01-01T10:53:37.963Z,1.70
2023-01-01T10:56:20.061Z,1.87
2023-01-01T10:58:58.678Z,1.97
2023-01-01T11:01:26.751Z,1.87
2023-01-01T11:04:19.428Z,1.93
2023-01-01T11:06:47.484Z,1.77
2023-01-01T11:09:25.556Z,1.80
2023-01-01T11:12:08.061Z,1.93
2023-01-01T11:14:39.001Z,1.50
2023-01-01T11:17:06.441Z,1.60
2023-01-01T11:19:39.179Z,2.17
2023-01-01T11:22:06.364Z,2.47
2023-01-01T11:24:34.884Z,2.03
2023-01-01T11:27:30.951Z,1.93
2023-01-01T11:30:19.272Z,2.00
2023-01-01T11:32:50.532Z,2.07
2023-01-01T11:35:24.024Z,2.53
2023-01-01T11:37:53.263Z,2.30
2023-01-01T11:40:26.370Z,1.97
2023-01-01T11:42:58.076Z,1.90
2023-01-01T11:45:37.912Z,2.10
2023-01-01T11:48:12.657Z,1.80
2023-01-01T11:50:41.092Z,1.53
2023-01-01T11:53:19.912Z,1.83
2023-01-01T11:55:54.964Z,2.53
2023-01-01T11:58:32.861Z,1.80
2023-01-01T12:01:03.985Z,2.10
2023-01-01T12:04:11.469Z,1.60
2023-01-01T12:07:02.555Z,1.93
2023-01-01T12:09:43.938Z,1.73
2023-01-01T12:12:20.561Z,1.80
2023-01-01T12:14:57.749Z,2.27
2023-01-01T12:17:27.929Z,2.00
2023-01-01T12:20:17.344Z,1.93
2023-01-01T12:22:43.723Z,1.80
2023-01-01T12:25:13.327Z,1.60
2023-01-01T12:28:13.559Z,2.10
2023-01-01T12:31:00.473Z,1.80
2023-01-01T12:33:43.719Z,1.83
2023-01-01T12:36:35.096Z,2.07
2023-01-01T12:39:27.753Z,2.27
2023-01-01T12:42:23.936Z,2.37
2023-01-01T12:45:18.391Z,2.27
2023-01-01T12:47:55.543Z,2.13
2023-01-01T12:50:54.350Z,2.07
2023-01-01T12:53:57.237Z,2.23
2023-01-01T12:56:35.680Z,2.37
2023-01-01T12:59:10.778Z,1.90
2023-01-01T13:01:39.330Z,2.03
2023-01-01T13:04:10.914Z,2.23
2023-01-01T13:06:44.046Z,1.90
2023-01-01T13:09:22.815Z,2.30
2023-01-01T13:12:00.095Z,1.93
2023-01-01T13:14:27.059Z,1.90
2023-01-01T13:16:57.701Z,2.40
2023-01-01T13:19:25.388Z,2.03
2023-01-01T13:22:05.776Z,1.83
2023-01-01T13:24:32.239Z,1.80
2023-01-01T13:26:58.650Z,1.80
2023-01-01T13:29:30.411Z,2.17
2023-01-01T13:32:02.405Z,2.17
2023-01-01T13:34:38.219Z,1.90
2023-01-01T13:37:10.625Z,1.77
2023-01-01T13:40:03.631Z,1.90
2023-01-01T13:42:52.598Z,1.60
2023-01-01T13:46:10.667Z,2.17
2023-01-01T13:48:37.334Z,1.80
2023-01-01T13:52:04.025Z,2.30
2023-01-01T13:54:44.388Z,1.70
2023-01-01T13:57:22.913Z,1.73
2023-01-01T13:59:55.324Z,1.90
2023-01-01T14:02:42.867Z,2.03
2023-01-01T14:05:35.552Z,2.40
2023-01-01T14:08:02.099Z,1.50
2023-01-01T14:10:31.362Z,1.90
2023-01-01T14:13:06.818Z,2.13
2023-01-01T14:15:46.140Z,1.70
2023-01-01T14:18:17.826Z,2.03
2023-01-01T14:20:50.388Z,1.93
2023-01-01T14:23:26.957Z,1.97
2023-01-01T14:25:53.400Z,1.87
2023-01-01T14:28:25.647Z,2.07
2023-01-01T14:30:53.590Z,1.83
2023-01-01T14:33:39.519Z,2.33
2023-01-01T14:36:16.589Z,1.80
2023-01-01T14:38:45.234Z,1.60
2023-01-01T14:41:18.201Z,1.80
2023-01-01T14:43:47.808Z,1.60
2023-01-01T14:46:17.966Z,1.50
2023-01-01T14:48:47.008Z,1.80
2023-01-01T14:51:21.624Z,1.77
2023-01-01T14:53:49.369Z,2.00
2023-01-01T14:56:33.988Z,1.70
2023-01-01T14:59:29.914Z,2.10
2023-01-01T15:02:01.920Z,2.03
2023-01-01T15:04:29.475Z,1.37
2023-01-01T15:07:01.223Z,1.57
2023-01-01T15:09:30.283Z,1.80
2023-01-01T15:11:58.042Z,1.77
2023-01-01T15:14:33.332Z,1.93
2023-01-01T15:17:08.795Z,2.00
2023-01-01T15:19:36.987Z,1.40
2023-01-01T15:22:18.428Z,1.80
2023-01-01T15:24:45.525Z,1.90
2023-01-01T15:27:23.298Z,1.73
2023-01-01T15:29:50.810Z,1.80
2023-01-01T15:32:25.038Z,1.67
2023-01-01T15:34:54.209Z,1.93
2023-01-01T15:37:33.269Z,1.90
2023-01-01T15:40:23.523Z,2.00
2023-01-01T15:42:58.946Z,2.50
2023-01-01T15:45:25.295Z,4.93
2023-01-01T15:47:54.619Z,4.10
2023-01-01T15:50:32.848Z,3.23
2023-01-01T15:53:02.684Z,2.20
2023-01-01T15:55:33.792Z,2.77
2023-01-01T15:58:01.261Z,2.30
2023-01-01T16:00:30.414Z,2.70
2023-01-01T16:03:09.294Z,2.17
2023-01-01T16:05:35.673Z,2.50
2023-01-01T16:08:05.658Z,1.90
2023-01-01T16:10:32.357Z,3.87
2023-01-01T16:12:59.162Z,9.50
2023-01-01T16:15:26.254Z,4.23
2023-01-01T16:17:52.760Z,2.73
2023-01-01T16:20:21.587Z,2.47
2023-01-01T16:22:48.518Z,2.87
2023-01-01T16:25:20.451Z,2.53
2023-01-01T16:27:47.456Z,2.53
2023-01-01T16:30:14.742Z,2.40
2023-01-01T16:32:41.811Z,2.60
2023-01-01T16:35:13.236Z,2.57
2023-01-01T16:37:39.581Z,2.50
2023-01-01T16:40:06.922Z,2.87
2023-01-01T16:42:33.294Z,2.60
2023-01-01T16:44:59.658Z,3.37
2023-01-01T16:47:26.014Z,4.10
2023-01-01T16:49:52.390Z,3.60
2023-01-01T16:52:18.840Z,4.10
2023-01-01T16:54:45.325Z,4.60
2023-01-01T16:57:11.670Z,4.30
2023-01-01T16:59:38.115Z,5.07
2023-01-01T17:02:05.200Z,5.97
2023-01-01T17:04:31.841Z,5.60
2023-01-01T17:06:58.191Z,6.33
2023-01-01T17:09:24.765Z,6.17
2023-01-01T17:11:51.112Z,6.73
2023-01-01T17:14:17.550Z,6.70
2023-01-01T17:16:44.006Z,5.60
2023-01-01T17:19:14.917Z,5.63
2023-01-01T17:21:42.642Z,5.40
2023-01-01T17:24:09.105Z,5.70
2023-01-01T17:26:35.607Z,5.60
2023-01-01T17:29:02.949Z,8.77
2023-01-01T17:31:29.647Z,10.53
2023-01-01T17:33:56.611Z,13.83
2023-01-01T17:36:23.488Z,7.63
2023-01-01T17:38:49.891Z,6.57
2023-01-01T17:41:17.554Z,5.93
2023-01-01T17:43:46.255Z,5.53
2023-01-01T17:46:21.833Z,5.13
2023-01-01T17:48:49.318Z,5.03
2023-01-01T17:51:16.841Z,5.17
2023-01-01T17:53:43.310Z,4.63
2023-01-01T17:56:14.553Z,4.50
2023-01-01T17:58:43.026Z,4.40
2023-01-01T18:01:21.870Z,4.60
2023-01-01T18:03:50.002Z,5.20
2023-01-01T18:06:16.415Z,4.50
2023-01-01T18:08:42.900Z,5.00
2023-01-01T18:11:09.548Z,4.70
2023-01-01T18:13:36.362Z,13.77
2023-01-01T18:16:04.229Z,10.17
2023-01-01T18:18:33.578Z,8.67
2023-01-01T18:21:05.527Z,5.10
2023-01-01T18:23:33.454Z,4.03
2023-01-01T18:26:01.985Z,4.10
2023-01-01T18:28:29.277Z,4.00
2023-01-01T18:30:55.871Z,4.20
2023-01-01T18:33:22.335Z,3.80
2023-01-01T18:35:48.804Z,3.93
2023-01-01T18:38:16.485Z,4.17
2023-01-01T18:41:06.898Z,3.80
2023-01-01T18:43:33.265Z,3.67
2023-01-01T18:45:59.611Z,3.77
2023-01-01T18:48:25.998Z,3.83
2023-01-01T18:50:52.513Z,3.73
2023-01-01T18:53:22.063Z,4.33
2023-01-01T18:55:59.161Z,3.90
2023-01-01T18:58:25.732Z,4.30
2023-01-01T19:00:53.865Z,4.30
2023-01-01T19:03:28.066Z,4.80
2023-01-01T19:05:56.005Z,3.83
2023-01-01T19:08:23.370Z,4.47
2023-01-01T19:10:57.541Z,3.90
2023-01-01T19:13:28.785Z,3.80
2023-01-01T19:16:10.491Z,4.07
2023-01-01T19:18:39.440Z,4.60
2023-01-01T19:21:21.735Z,4.40
2023-01-01T19:23:54.819Z,4.60
2023-01-01T19:26:41.324Z,4.47
2023-01-01T19:29:21.254Z,4.40
2023-01-01T19:31:53.175Z,4.30
2023-01-01T19:34:20.674Z,4.40
2023-01-01T19:36:47.170Z,4.67
2023-01-01T19:39:16.780Z,4.73
2023-01-01T19:41:43.460Z,3.83
2023-01-01T19:44:10.686Z,4.20
2023-01-01T19:46:37.318Z,3.67
2023-01-01T19:49:03.932Z,4.60
2023-01-01T19:51:30.356Z,4.67
2023-01-01T19:53:56.770Z,4.03
2023-01-01T19:56:23.484Z,4.63
2023-01-01T19:58:49.971Z,4.60
2023-01-01T20:01:16.609Z,4.00
2023-01-01T20:03:58.774Z,4.00
2023-01-01T20:06:26.175Z,4.30
2023-01-01T20:08:53.502Z,3.63
2023-01-01T20:11:20.765Z,4.30
2023-01-01T20:13:47.382Z,4.03
2023-01-01T20:16:13.872Z,3.90
2023-01-01T20:18:40.413Z,4.43
2023-01-01T20:21:26.739Z,4.40
2023-01-01T20:23:54.492Z,4.20
2023-01-01T20:26:21.082Z,4.07
2023-01-01T20:29:05.977Z,3.63
2023-01-01T20:31:32.525Z,3.73
2023-01-01T20:33:58.986Z,3.77
2023-01-01T20:36:44.182Z,3.87
2023-01-01T20:39:10.510Z,4.20
2023-01-01T20:41:36.935Z,4.83
2023-01-01T20:44:03.867Z,3.50
2023-01-01T20:46:30.389Z,3.03
2023-01-01T20:48:57.598Z,4.00
2023-01-01T20:51:24.124Z,3.70
2023-01-01T20:53:50.571Z,4.33
2023-01-01T20:56:16.982Z,5.70
2023-01-01T20:58:48.640Z,3.80
2023-01-01T21:01:18.381Z,4.20
2023-01-01T21:03:44.958Z,4.27
2023-01-01T21:06:11.389Z,3.73
2023-01-01T21:08:37.773Z,3.57
2023-01-01T21:11:04.394Z,5.00
2023-01-01T21:13:30.854Z,4.60
2023-01-01T21:16:12.964Z,3.63
2023-01-01T21:18:40.930Z,4.03
2023-01-01T21:21:41.000Z,3.80
2023-01-01T21:24:36.180Z,3.63
2023-01-01T21:27:13.103Z,3.63
2023-01-01T21:29:47.050Z,4.63
2023-01-01T21:32:21.784Z,3.80
2023-01-01T21:34:50.519Z,3.97
2023-01-01T21:37:44.787Z,3.90
2023-01-01T21:40:45.148Z,4.43
2023-01-01T21:43:22.859Z,4.00
2023-01-01T21:45:49.671Z,4.27
2023-01-01T21:48:18.066Z,3.70
2023-01-01T21:50:47.433Z,3.60
2023-01-01T21:53:19.296Z,3.53
2023-01-01T21:55:56.371Z,3.43
2023-01-01T21:58:51.087Z,3.23
2023-01-01T22:01:27.303Z,3.67
2023-01-01T22:04:02.646Z,4.07
2023-01-01T22:06:37.203Z,3.30
2023-01-01T22:09:13.931Z,3.00
2023-01-01T22:11:40.282Z,3.20
2023-01-01T22:14:15.869Z,4.17
2023-01-01T22:16:44.318Z,3.40
2023-01-01T22:19:19.275Z,3.40
2023-01-01T22:21:46.789Z,3.20
2023-01-01T22:24:33.984Z,3.57
2023-01-01T22:27:20.501Z,3.47
2023-01-01T22:29:47.193Z,3.30
2023-01-01T22:32:29.418Z,3.03
2023-01-01T22:35:06.719Z,3.47
2023-01-01T22:37:38.190Z,3.43
2023-01-01T22:40:09.906Z,2.93
2023-01-01T22:42:38.772Z,3.13
2023-01-01T22:45:13.988Z,2.70
2023-01-01T22:47:44.606Z,3.33
2023-01-01T22:50:27.265Z,3.17
2023-01-01T22:52:53.757Z,2.83
2023-01-01T22:55:20.124Z,3.10
2023-01-01T22:57:47.063Z,3.20
2023-01-01T23:00:15.201Z,3.40
2023-01-01T23:02:41.583Z,3.33
2023-01-01T23:05:08.107Z,3.40
2023-01-01T23:07:41.414Z,3.47
2023-01-01T23:10:10.279Z,3.07
2023-01-01T23:12:36.699Z,3.23
2023-01-01T23:15:22.261Z,3.07
2023-01-01T23:17:48.689Z,3.00
2023-01-01T23:20:15.177Z,3.23
2023-01-01T23:22:45.106Z,3.00
2023-01-01T23:25:14.787Z,3.40
2023-01-01T23:27:41.690Z,3.10
2023-01-01T23:30:08.772Z,3.00
2023-01-01T23:32:36.131Z,2.90
2023-01-01T23:35:03.009Z,2.73
2023-01-01T23:37:29.627Z,3.10
2023-01-01T23:39:56.039Z,2.50
2023-01-01T23:42:22.448Z,3.10
2023-01-01T23:44:48.850Z,3.03
2023-01-01T23:47:15.241Z,3.50
2023-01-01T23:49:42.618Z,2.90
2023-01-01T23:52:09.840Z,3.00
2023-01-01T23:54:38.923Z,3.10
2023-01-01T23:57:05.604Z,2.70
2023-01-01T23:59:32.033Z,3.97
